sensor_id;sensor_type;location;lat;lon;timestamp;P1;durP1;ratioP1;P2;durP2;ratioP2
21046;SDS011;10682;50.874;3.656;2023-04-03T00:01:34;22.43;;;12.47;;
21046;SDS011;10682;50.874;3.656;2023-04-03T00:04:01;20.57;;;12.97;;
21046;SDS011;10682;50.874;3.656;2023-04-03T00:06:32;21.87;;;12.93;;
21046;SDS011;10682;50.874;3.656;2023-04-03T00:09:01;22.77;;;13.13;;
21046;SDS011;10682;50.874;3.656;2023-04-03T00:11:28;25.57;;;13.87;;
21046;SDS011;10682;50.874;3.656;2023-04-03T00:13:56;22.60;;;13.33;;
21046;SDS011;10682;50.874;3.656;2023-04-03T00:16:23;23.07;;;13.97;;
21046;SDS011;10682;50.874;3.656;2023-04-03T00:18:50;22.10;;;12.37;;
21046;SDS011;10682;50.874;3.656;2023-04-03T00:21:17;21.23;;;12.80;;
21046;SDS011;10682;50.874;3.656;2023-04-03T00:23:44;19.07;;;11.10;;
21046;SDS011;10682;50.874;3.656;2023-04-03T00:26:11;23.53;;;11.93;;
21046;SDS011;10682;50.874;3.656;2023-04-03T00:28:41;18.53;;;11.53;;
21046;SDS011;10682;50.874;3.656;2023-04-03T00:31:08;21.63;;;12.50;;
21046;SDS011;10682;50.874;3.656;2023-04-03T00:33:53;20.53;;;12.10;;
21046;SDS011;10682;50.874;3.656;2023-04-03T00:36:20;17.27;;;10.63;;
21046;SDS011;10682;50.874;3.656;2023-04-03T00:38:47;17.20;;;10.20;;
21046;SDS011;10682;50.874;3.656;2023-04-03T00:41:14;16.37;;;9.10;;
21046;SDS011;10682;50.874;3.656;2023-04-03T00:43:44;13.20;;;8.43;;
21046;SDS011;10682;50.874;3.656;2023-04-03T00:46:11;16.77;;;9.83;;
21046;SDS011;10682;50.874;3.656;2023-04-03T00:48:43;14.80;;;8.97;;
21046;SDS011;10682;50.874;3.656;2023-04-03T00:51:20;20.13;;;9.90;;
21046;SDS011;10682;50.874;3.656;2023-04-03T00:54:00;16.67;;;9.50;;
21046;SDS011;10682;50.874;3.656;2023-04-03T00:56:31;17.33;;;9.87;;
21046;SDS011;10682;50.874;3.656;2023-04-03T00:59:05;17.77;;;9.87;;
21046;SDS011;10682;50.874;3.656;2023-04-03T01:01:40;16.73;;;10.67;;
21046;SDS011;10682;50.874;3.656;2023-04-03T01:07:26;15.63;;;9.67;;
21046;SDS011;10682;50.874;3.656;2023-04-03T01:09:57;17.17;;;10.57;;
21046;SDS011;10682;50.874;3.656;2023-04-03T01:12:34;19.77;;;11.00;;
21046;SDS011;10682;50.874;3.656;2023-04-03T01:15:25;19.43;;;10.80;;
21046;SDS011;10682;50.874;3.656;2023-04-03T01:18:15;17.67;;;10.63;;
21046;SDS011;10682;50.874;3.656;2023-04-03T01:23:59;18.23;;;10.43;;
21046;SDS011;10682;50.874;3.656;2023-04-03T01:26:42;20.47;;;11.53;;
21046;SDS011;10682;50.874;3.656;2023-04-03T01:29:10;18.97;;;10.67;;
21046;SDS011;10682;50.874;3.656;2023-04-03T01:31:55;21.90;;;11.27;;
21046;SDS011;10682;50.874;3.656;2023-04-03T01:34:26;18.23;;;10.43;;
21046;SDS011;10682;50.874;3.656;2023-04-03T01:37:03;20.17;;;11.13;;
21046;SDS011;10682;50.874;3.656;2023-04-03T01:39:30;16.70;;;9.97;;
21046;SDS011;10682;50.874;3.656;2023-04-03T01:41:57;17.83;;;10.70;;
21046;SDS011;10682;50.874;3.656;2023-04-03T01:44:25;18.67;;;10.57;;
21046;SDS011;10682;50.874;3.656;2023-04-03T01:46:52;18.27;;;10.43;;
21046;SDS011;10682;50.874;3.656;2023-04-03T01:49:19;17.17;;;9.40;;
21046;SDS011;10682;50.874;3.656;2023-04-03T01:51:46;20.23;;;10.67;;
21046;SDS011;10682;50.874;3.656;2023-04-03T01:54:13;16.10;;;10.27;;
21046;SDS011;10682;50.874;3.656;2023-04-03T01:56:40;20.90;;;10.30;;
21046;SDS011;10682;50.874;3.656;2023-04-03T01:59:07;18.73;;;10.50;;
21046;SDS011;10682;50.874;3.656;2023-04-03T02:01:34;21.37;;;10.67;;
21046;SDS011;10682;50.874;3.656;2023-04-03T02:04:02;19.13;;;10.87;;
21046;SDS011;10682;50.874;3.656;2023-04-03T02:06:29;18.77;;;9.87;;
21046;SDS011;10682;50.874;3.656;2023-04-03T02:08:56;17.27;;;10.20;;
21046;SDS011;10682;50.874;3.656;2023-04-03T02:11:23;16.57;;;10.13;;
21046;SDS011;10682;50.874;3.656;2023-04-03T02:13:50;17.77;;;10.57;;
21046;SDS011;10682;50.874;3.656;2023-04-03T02:16:17;16.17;;;10.27;;
21046;SDS011;10682;50.874;3.656;2023-04-03T02:18:44;19.03;;;10.30;;
21046;SDS011;10682;50.874;3.656;2023-04-03T02:21:11;18.47;;;10.17;;
21046;SDS011;10682;50.874;3.656;2023-04-03T02:23:38;16.07;;;10.20;;
21046;SDS011;10682;50.874;3.656;2023-04-03T02:26:13;16.53;;;10.17;;
21046;SDS011;10682;50.874;3.656;2023-04-03T02:28:42;21.23;;;10.37;;
21046;SDS011;10682;50.874;3.656;2023-04-03T02:31:10;21.90;;;11.60;;
21046;SDS011;10682;50.874;3.656;2023-04-03T02:33:37;21.70;;;11.20;;
21046;SDS011;10682;50.874;3.656;2023-04-03T02:36:11;18.17;;;9.80;;
21046;SDS011;10682;50.874;3.656;2023-04-03T02:38:38;17.60;;;10.37;;
21046;SDS011;10682;50.874;3.656;2023-04-03T02:41:06;17.40;;;10.13;;
21046;SDS011;10682;50.874;3.656;2023-04-03T02:43:44;16.57;;;9.97;;
21046;SDS011;10682;50.874;3.656;2023-04-03T02:46:28;14.83;;;10.00;;
21046;SDS011;10682;50.874;3.656;2023-04-03T02:48:56;22.47;;;13.00;;
21046;SDS011;10682;50.874;3.656;2023-04-03T02:51:32;24.10;;;13.50;;
21046;SDS011;10682;50.874;3.656;2023-04-03T02:54:02;26.57;;;13.70;;
21046;SDS011;10682;50.874;3.656;2023-04-03T02:56:35;25.47;;;14.30;;
21046;SDS011;10682;50.874;3.656;2023-04-03T02:59:10;24.00;;;13.07;;
21046;SDS011;10682;50.874;3.656;2023-04-03T03:01:37;19.87;;;11.80;;
21046;SDS011;10682;50.874;3.656;2023-04-03T03:04:24;22.20;;;11.67;;
21046;SDS011;10682;50.874;3.656;2023-04-03T03:07:00;18.00;;;10.73;;
21046;SDS011;10682;50.874;3.656;2023-04-03T03:09:45;25.73;;;12.00;;
21046;SDS011;10682;50.874;3.656;2023-04-03T03:12:34;21.07;;;12.17;;
21046;SDS011;10682;50.874;3.656;2023-04-03T03:15:02;24.80;;;13.20;;
21046;SDS011;10682;50.874;3.656;2023-04-03T03:17:38;23.10;;;12.73;;
21046;SDS011;10682;50.874;3.656;2023-04-03T03:20:15;26.33;;;13.37;;
21046;SDS011;10682;50.874;3.656;2023-04-03T03:22:45;24.33;;;12.87;;
21046;SDS011;10682;50.874;3.656;2023-04-03T03:25:12;28.47;;;13.37;;
21046;SDS011;10682;50.874;3.656;2023-04-03T03:27:47;23.20;;;12.63;;
21046;SDS011;10682;50.874;3.656;2023-04-03T03:30:14;23.20;;;12.70;;
21046;SDS011;10682;50.874;3.656;2023-04-03T03:32:45;22.03;;;12.07;;
21046;SDS011;10682;50.874;3.656;2023-04-03T03:35:21;21.80;;;11.77;;
21046;SDS011;10682;50.874;3.656;2023-04-03T03:37:48;23.93;;;12.87;;
21046;SDS011;10682;50.874;3.656;2023-04-03T03:40:16;21.97;;;12.47;;
21046;SDS011;10682;50.874;3.656;2023-04-03T03:42:43;22.33;;;12.27;;
21046;SDS011;10682;50.874;3.656;2023-04-03T03:45:27;19.37;;;11.83;;
21046;SDS011;10682;50.874;3.656;2023-04-03T03:47:55;20.50;;;11.70;;
21046;SDS011;10682;50.874;3.656;2023-04-03T03:50:22;22.53;;;12.03;;
21046;SDS011;10682;50.874;3.656;2023-04-03T03:52:49;22.87;;;12.53;;
21046;SDS011;10682;50.874;3.656;2023-04-03T03:55:16;20.77;;;11.80;;
21046;SDS011;10682;50.874;3.656;2023-04-03T03:57:43;23.03;;;11.63;;
21046;SDS011;10682;50.874;3.656;2023-04-03T04:00:10;22.70;;;13.03;;
21046;SDS011;10682;50.874;3.656;2023-04-03T04:02:38;26.03;;;12.70;;
21046;SDS011;10682;50.874;3.656;2023-04-03T04:05:05;22.73;;;12.33;;
21046;SDS011;10682;50.874;3.656;2023-04-03T04:07:33;22.53;;;12.80;;
21046;SDS011;10682;50.874;3.656;2023-04-03T04:10:00;22.83;;;12.20;;
21046;SDS011;10682;50.874;3.656;2023-04-03T04:12:27;20.53;;;11.60;;
21046;SDS011;10682;50.874;3.656;2023-04-03T04:14:54;22.13;;;11.63;;
21046;SDS011;10682;50.874;3.656;2023-04-03T04:17:21;22.07;;;11.70;;
21046;SDS011;10682;50.874;3.656;2023-04-03T04:19:48;19.90;;;11.73;;
21046;SDS011;10682;50.874;3.656;2023-04-03T04:22:15;22.37;;;12.00;;
21046;SDS011;10682;50.874;3.656;2023-04-03T04:24:42;22.03;;;12.23;;
21046;SDS011;10682;50.874;3.656;2023-04-03T04:27:09;24.07;;;12.93;;
21046;SDS011;10682;50.874;3.656;2023-04-03T04:29:36;19.17;;;11.30;;
21046;SDS011;10682;50.874;3.656;2023-04-03T04:32:03;20.93;;;12.13;;
21046;SDS011;10682;50.874;3.656;2023-04-03T04:34:31;22.10;;;12.53;;
21046;SDS011;10682;50.874;3.656;2023-04-03T04:36:58;21.20;;;12.73;;
21046;SDS011;10682;50.874;3.656;2023-04-03T04:39:25;23.17;;;12.83;;
21046;SDS011;10682;50.874;3.656;2023-04-03T04:41:52;28.10;;;14.20;;
21046;SDS011;10682;50.874;3.656;2023-04-03T04:44:19;21.00;;;12.70;;
21046;SDS011;10682;50.874;3.656;2023-04-03T04:46:46;24.57;;;14.60;;
21046;SDS011;10682;50.874;3.656;2023-04-03T04:49:13;25.40;;;15.67;;
21046;SDS011;10682;50.874;3.656;2023-04-03T04:51:40;29.67;;;15.03;;
21046;SDS011;10682;50.874;3.656;2023-04-03T04:54:17;25.33;;;14.90;;
21046;SDS011;10682;50.874;3.656;2023-04-03T04:56:44;23.60;;;13.00;;
21046;SDS011;10682;50.874;3.656;2023-04-03T04:59:11;25.37;;;14.80;;
21046;SDS011;10682;50.874;3.656;2023-04-03T05:01:38;25.93;;;14.67;;
21046;SDS011;10682;50.874;3.656;2023-04-03T05:04:06;25.93;;;14.23;;
21046;SDS011;10682;50.874;3.656;2023-04-03T05:06:33;23.70;;;13.77;;
21046;SDS011;10682;50.874;3.656;2023-04-03T05:09:01;24.70;;;12.53;;
21046;SDS011;10682;50.874;3.656;2023-04-03T05:11:28;24.80;;;12.07;;
21046;SDS011;10682;50.874;3.656;2023-04-03T05:13:56;20.60;;;11.50;;
21046;SDS011;10682;50.874;3.656;2023-04-03T05:16:23;22.40;;;11.70;;
21046;SDS011;10682;50.874;3.656;2023-04-03T05:18:50;18.83;;;10.23;;
21046;SDS011;10682;50.874;3.656;2023-04-03T05:21:24;21.37;;;10.40;;
21046;SDS011;10682;50.874;3.656;2023-04-03T05:23:54;19.20;;;10.10;;
21046;SDS011;10682;50.874;3.656;2023-04-03T05:26:21;20.07;;;10.83;;
21046;SDS011;10682;50.874;3.656;2023-04-03T05:28:48;16.67;;;9.83;;
21046;SDS011;10682;50.874;3.656;2023-04-03T05:31:16;19.17;;;10.50;;
21046;SDS011;10682;50.874;3.656;2023-04-03T05:33:43;20.37;;;10.67;;
21046;SDS011;10682;50.874;3.656;2023-04-03T05:36:09;22.03;;;10.30;;
21046;SDS011;10682;50.874;3.656;2023-04-03T05:38:37;20.13;;;11.87;;
21046;SDS011;10682;50.874;3.656;2023-04-03T05:41:04;19.80;;;11.07;;
21046;SDS011;10682;50.874;3.656;2023-04-03T05:43:31;30.43;;;11.57;;
21046;SDS011;10682;50.874;3.656;2023-04-03T05:46:00;20.57;;;11.53;;
21046;SDS011;10682;50.874;3.656;2023-04-03T05:48:34;20.20;;;11.03;;
21046;SDS011;10682;50.874;3.656;2023-04-03T05:51:10;22.73;;;11.73;;
21046;SDS011;10682;50.874;3.656;2023-04-03T05:54:13;19.60;;;11.43;;
21046;SDS011;10682;50.874;3.656;2023-04-03T05:57:10;22.93;;;12.20;;
21046;SDS011;10682;50.874;3.656;2023-04-03T05:59:38;22.70;;;11.80;;
21046;SDS011;10682;50.874;3.656;2023-04-03T06:02:06;18.23;;;11.70;;
21046;SDS011;10682;50.874;3.656;2023-04-03T06:04:33;24.33;;;12.37;;
21046;SDS011;10682;50.874;3.656;2023-04-03T06:07:14;24.10;;;12.13;;
21046;SDS011;10682;50.874;3.656;2023-04-03T06:09:46;20.80;;;11.40;;
21046;SDS011;10682;50.874;3.656;2023-04-03T06:12:14;22.30;;;12.03;;
21046;SDS011;10682;50.874;3.656;2023-04-03T06:14:43;24.77;;;13.40;;
21046;SDS011;10682;50.874;3.656;2023-04-03T06:17:10;18.93;;;11.80;;
21046;SDS011;10682;50.874;3.656;2023-04-03T06:19:38;18.77;;;12.10;;
21046;SDS011;10682;50.874;3.656;2023-04-03T06:22:05;23.17;;;12.67;;
21046;SDS011;10682;50.874;3.656;2023-04-03T06:24:32;23.50;;;13.50;;
21046;SDS011;10682;50.874;3.656;2023-04-03T06:26:59;19.70;;;11.90;;
21046;SDS011;10682;50.874;3.656;2023-04-03T06:29:27;19.83;;;11.97;;
21046;SDS011;10682;50.874;3.656;2023-04-03T06:31:54;22.60;;;13.07;;
21046;SDS011;10682;50.874;3.656;2023-04-03T06:34:21;21.93;;;12.70;;
21046;SDS011;10682;50.874;3.656;2023-04-03T06:36:48;26.47;;;13.90;;
21046;SDS011;10682;50.874;3.656;2023-04-03T06:39:18;22.93;;;13.03;;
21046;SDS011;10682;50.874;3.656;2023-04-03T06:41:48;25.40;;;14.27;;
21046;SDS011;10682;50.874;3.656;2023-04-03T06:44:17;23.70;;;14.00;;
21046;SDS011;10682;50.874;3.656;2023-04-03T06:46:45;24.43;;;14.10;;
21046;SDS011;10682;50.874;3.656;2023-04-03T06:49:15;28.47;;;15.07;;
21046;SDS011;10682;50.874;3.656;2023-04-03T06:51:50;24.27;;;14.43;;
21046;SDS011;10682;50.874;3.656;2023-04-03T06:54:28;25.90;;;14.97;;
21046;SDS011;10682;50.874;3.656;2023-04-03T07:00:04;23.93;;;14.77;;
21046;SDS011;10682;50.874;3.656;2023-04-03T07:02:33;24.17;;;14.13;;
21046;SDS011;10682;50.874;3.656;2023-04-03T07:05:00;21.97;;;12.93;;
21046;SDS011;10682;50.874;3.656;2023-04-03T07:07:28;17.53;;;11.00;;
21046;SDS011;10682;50.874;3.656;2023-04-03T07:09:56;12.30;;;8.67;;
21046;SDS011;10682;50.874;3.656;2023-04-03T07:12:23;12.27;;;7.73;;
21046;SDS011;10682;50.874;3.656;2023-04-03T07:14:50;15.17;;;8.17;;
21046;SDS011;10682;50.874;3.656;2023-04-03T07:17:17;14.40;;;8.20;;
21046;SDS011;10682;50.874;3.656;2023-04-03T07:19:44;14.47;;;8.10;;
21046;SDS011;10682;50.874;3.656;2023-04-03T07:22:11;14.93;;;9.13;;
21046;SDS011;10682;50.874;3.656;2023-04-03T07:24:39;15.70;;;8.60;;
21046;SDS011;10682;50.874;3.656;2023-04-03T07:27:06;16.30;;;8.60;;
21046;SDS011;10682;50.874;3.656;2023-04-03T07:29:34;14.37;;;9.03;;
21046;SDS011;10682;50.874;3.656;2023-04-03T07:32:02;13.67;;;7.73;;
21046;SDS011;10682;50.874;3.656;2023-04-03T07:34:30;11.43;;;6.90;;
21046;SDS011;10682;50.874;3.656;2023-04-03T07:36:58;10.33;;;6.40;;
21046;SDS011;10682;50.874;3.656;2023-04-03T07:39:26;11.20;;;6.13;;
21046;SDS011;10682;50.874;3.656;2023-04-03T07:41:54;11.43;;;6.13;;
21046;SDS011;10682;50.874;3.656;2023-04-03T07:44:24;8.17;;;5.90;;
21046;SDS011;10682;50.874;3.656;2023-04-03T07:46:51;13.30;;;5.20;;
21046;SDS011;10682;50.874;3.656;2023-04-03T07:49:18;9.37;;;5.17;;
21046;SDS011;10682;50.874;3.656;2023-04-03T07:51:45;7.50;;;5.03;;
21046;SDS011;10682;50.874;3.656;2023-04-03T07:54:12;7.60;;;5.27;;
21046;SDS011;10682;50.874;3.656;2023-04-03T07:56:40;8.90;;;4.60;;
21046;SDS011;10682;50.874;3.656;2023-04-03T07:59:11;9.37;;;4.63;;
21046;SDS011;10682;50.874;3.656;2023-04-03T08:01:47;9.00;;;4.77;;
21046;SDS011;10682;50.874;3.656;2023-04-03T08:04:14;14.67;;;5.27;;
21046;SDS011;10682;50.874;3.656;2023-04-03T08:06:44;10.90;;;4.90;;
21046;SDS011;10682;50.874;3.656;2023-04-03T08:09:13;11.63;;;5.10;;
21046;SDS011;10682;50.874;3.656;2023-04-03T08:11:41;10.90;;;5.00;;
21046;SDS011;10682;50.874;3.656;2023-04-03T08:14:09;8.03;;;5.47;;
21046;SDS011;10682;50.874;3.656;2023-04-03T08:16:44;7.53;;;4.93;;
21046;SDS011;10682;50.874;3.656;2023-04-03T08:19:14;10.13;;;5.97;;
21046;SDS011;10682;50.874;3.656;2023-04-03T08:21:52;11.37;;;5.60;;
21046;SDS011;10682;50.874;3.656;2023-04-03T08:24:20;12.83;;;6.70;;
21046;SDS011;10682;50.874;3.656;2023-04-03T08:26:55;12.60;;;6.60;;
21046;SDS011;10682;50.874;3.656;2023-04-03T08:29:24;12.93;;;7.30;;
21046;SDS011;10682;50.874;3.656;2023-04-03T08:31:55;20.57;;;8.23;;
21046;SDS011;10682;50.874;3.656;2023-04-03T08:34:22;15.23;;;8.60;;
21046;SDS011;10682;50.874;3.656;2023-04-03T08:36:49;14.13;;;8.07;;
21046;SDS011;10682;50.874;3.656;2023-04-03T08:39:19;13.37;;;7.50;;
21046;SDS011;10682;50.874;3.656;2023-04-03T08:41:46;13.97;;;7.33;;
21046;SDS011;10682;50.874;3.656;2023-04-03T08:47:20;7.80;;;5.83;;
21046;SDS011;10682;50.874;3.656;2023-04-03T08:50:00;15.03;;;5.73;;
21046;SDS011;10682;50.874;3.656;2023-04-03T08:55:22;8.80;;;3.77;;
21046;SDS011;10682;50.874;3.656;2023-04-03T08:58:04;8.90;;;4.43;;
21046;SDS011;10682;50.874;3.656;2023-04-03T09:01:06;9.50;;;4.33;;
21046;SDS011;10682;50.874;3.656;2023-04-03T09:03:53;8.77;;;4.53;;
21046;SDS011;10682;50.874;3.656;2023-04-03T09:06:25;8.97;;;4.80;;
21046;SDS011;10682;50.874;3.656;2023-04-03T09:09:12;10.57;;;4.23;;
21046;SDS011;10682;50.874;3.656;2023-04-03T09:12:21;7.97;;;4.07;;
21046;SDS011;10682;50.874;3.656;2023-04-03T09:15:17;5.50;;;3.93;;
21046;SDS011;10682;50.874;3.656;2023-04-03T09:18:21;9.80;;;3.23;;
21046;SDS011;10682;50.874;3.656;2023-04-03T09:24:02;6.33;;;2.77;;
21046;SDS011;10682;50.874;3.656;2023-04-03T09:26:39;4.90;;;2.37;;
21046;SDS011;10682;50.874;3.656;2023-04-03T09:29:43;5.63;;;2.73;;
21046;SDS011;10682;50.874;3.656;2023-04-03T09:32:22;6.03;;;2.50;;
21046;SDS011;10682;50.874;3.656;2023-04-03T09:38:26;8.73;;;2.80;;
21046;SDS011;10682;50.874;3.656;2023-04-03T09:41:06;6.20;;;2.40;;
21046;SDS011;10682;50.874;3.656;2023-04-03T09:43:56;8.37;;;2.43;;
21046;SDS011;10682;50.874;3.656;2023-04-03T09:49:08;4.53;;;2.63;;
21046;SDS011;10682;50.874;3.656;2023-04-03T09:55:59;6.70;;;2.83;;
21046;SDS011;10682;50.874;3.656;2023-04-03T10:01:38;5.73;;;2.87;;
21046;SDS011;10682;50.874;3.656;2023-04-03T10:04:18;7.13;;;2.93;;
21046;SDS011;10682;50.874;3.656;2023-04-03T10:06:49;7.63;;;2.97;;
21046;SDS011;10682;50.874;3.656;2023-04-03T10:09:20;4.77;;;2.40;;
21046;SDS011;10682;50.874;3.656;2023-04-03T10:25:27;4.93;;;2.60;;
21046;SDS011;10682;50.874;3.656;2023-04-03T10:54:11;7.63;;;2.87;;
21046;SDS011;10682;50.874;3.656;2023-04-03T10:58:13;5.90;;;2.70;;
21046;SDS011;10682;50.874;3.656;2023-04-03T11:15:39;5.87;;;2.30;;
21046;SDS011;10682;50.874;3.656;2023-04-03T11:25:39;11.80;;;2.17;;
21046;SDS011;10682;50.874;3.656;2023-04-03T11:28:30;5.27;;;1.80;;
21046;SDS011;10682;50.874;3.656;2023-04-03T11:34:36;6.90;;;2.30;;
21046;SDS011;10682;50.874;3.656;2023-04-03T11:37:25;4.60;;;1.80;;
21046;SDS011;10682;50.874;3.656;2023-04-03T11:40:05;4.83;;;1.83;;
21046;SDS011;10682;50.874;3.656;2023-04-03T11:46:08;6.03;;;2.33;;
21046;SDS011;10682;50.874;3.656;2023-04-03T11:48:45;5.00;;;2.10;;
21046;SDS011;10682;50.874;3.656;2023-04-03T12:08:43;6.53;;;2.10;;
21046;SDS011;10682;50.874;3.656;2023-04-03T12:11:14;9.07;;;2.30;;
21046;SDS011;10682;50.874;3.656;2023-04-03T12:18:56;3.80;;;1.50;;
21046;SDS011;10682;50.874;3.656;2023-04-03T12:24:34;7.47;;;1.70;;
21046;SDS011;10682;50.874;3.656;2023-04-03T12:27:21;4.00;;;1.50;;
21046;SDS011;10682;50.874;3.656;2023-04-03T12:38:17;4.33;;;1.70;;
21046;SDS011;10682;50.874;3.656;2023-04-03T12:46:38;4.73;;;1.90;;
21046;SDS011;10682;50.874;3.656;2023-04-03T12:51:56;4.77;;;1.93;;
21046;SDS011;10682;50.874;3.656;2023-04-03T12:57:17;2.90;;;1.50;;
21046;SDS011;10682;50.874;3.656;2023-04-03T12:59:48;3.47;;;1.50;;
21046;SDS011;10682;50.874;3.656;2023-04-03T13:02:26;4.53;;;1.60;;
21046;SDS011;10682;50.874;3.656;2023-04-03T13:04:58;9.33;;;1.63;;
21046;SDS011;10682;50.874;3.656;2023-04-03T13:07:36;4.90;;;1.73;;
21046;SDS011;10682;50.874;3.656;2023-04-03T13:10:17;3.87;;;1.67;;
21046;SDS011;10682;50.874;3.656;2023-04-03T13:12:56;4.53;;;1.60;;
21046;SDS011;10682;50.874;3.656;2023-04-03T13:15:41;6.00;;;1.63;;
21046;SDS011;10682;50.874;3.656;2023-04-03T13:18:27;6.07;;;1.53;;
21046;SDS011;10682;50.874;3.656;2023-04-03T13:21:04;5.17;;;1.50;;
21046;SDS011;10682;50.874;3.656;2023-04-03T13:23:43;5.43;;;1.60;;
21046;SDS011;10682;50.874;3.656;2023-04-03T13:26:18;3.07;;;1.57;;
21046;SDS011;10682;50.874;3.656;2023-04-03T13:28:48;2.63;;;1.37;;
21046;SDS011;10682;50.874;3.656;2023-04-03T13:31:21;4.30;;;1.50;;
21046;SDS011;10682;50.874;3.656;2023-04-03T13:34:03;3.93;;;1.60;;
21046;SDS011;10682;50.874;3.656;2023-04-03T13:39:28;2.83;;;1.50;;
21046;SDS011;10682;50.874;3.656;2023-04-03T13:42:15;4.90;;;2.00;;
21046;SDS011;10682;50.874;3.656;2023-04-03T13:44:46;4.27;;;1.70;;
21046;SDS011;10682;50.874;3.656;2023-04-03T13:47:21;5.27;;;1.60;;
21046;SDS011;10682;50.874;3.656;2023-04-03T13:50:00;4.97;;;1.60;;
21046;SDS011;10682;50.874;3.656;2023-04-03T13:52:41;3.67;;;1.80;;
21046;SDS011;10682;50.874;3.656;2023-04-03T13:55:29;4.27;;;1.50;;
21046;SDS011;10682;50.874;3.656;2023-04-03T13:58:21;3.67;;;1.60;;
21046;SDS011;10682;50.874;3.656;2023-04-03T14:00:50;3.93;;;1.53;;
21046;SDS011;10682;50.874;3.656;2023-04-03T14:03:52;5.60;;;1.40;;
21046;SDS011;10682;50.874;3.656;2023-04-03T14:06:23;3.23;;;1.20;;
21046;SDS011;10682;50.874;3.656;2023-04-03T14:08:50;5.70;;;1.60;;
21046;SDS011;10682;50.874;3.656;2023-04-03T14:11:20;4.43;;;1.63;;
21046;SDS011;10682;50.874;3.656;2023-04-03T14:13:51;3.07;;;1.40;;
21046;SDS011;10682;50.874;3.656;2023-04-03T14:16:20;2.77;;;1.10;;
21046;SDS011;10682;50.874;3.656;2023-04-03T14:18:50;2.10;;;1.20;;
21046;SDS011;10682;50.874;3.656;2023-04-03T14:21:18;3.00;;;1.10;;
21046;SDS011;10682;50.874;3.656;2023-04-03T14:23:47;2.00;;;1.00;;
21046;SDS011;10682;50.874;3.656;2023-04-03T14:26:16;2.77;;;1.17;;
21046;SDS011;10682;50.874;3.656;2023-04-03T14:28:47;4.90;;;1.30;;
21046;SDS011;10682;50.874;3.656;2023-04-03T14:31:18;4.70;;;1.27;;
21046;SDS011;10682;50.874;3.656;2023-04-03T14:33:47;4.00;;;1.30;;
21046;SDS011;10682;50.874;3.656;2023-04-03T14:36:16;3.13;;;1.40;;
21046;SDS011;10682;50.874;3.656;2023-04-03T14:38:48;1.90;;;1.17;;
21046;SDS011;10682;50.874;3.656;2023-04-03T14:41:16;2.30;;;1.10;;
21046;SDS011;10682;50.874;3.656;2023-04-03T14:43:47;2.70;;;1.20;;
21046;SDS011;10682;50.874;3.656;2023-04-03T14:48:43;4.33;;;1.43;;
21046;SDS011;10682;50.874;3.656;2023-04-03T14:51:11;2.43;;;1.20;;
21046;SDS011;10682;50.874;3.656;2023-04-03T14:53:41;3.13;;;1.23;;
21046;SDS011;10682;50.874;3.656;2023-04-03T14:56:13;3.57;;;1.10;;
21046;SDS011;10682;50.874;3.656;2023-04-03T14:58:49;4.83;;;1.30;;
21046;SDS011;10682;50.874;3.656;2023-04-03T15:01:20;2.90;;;1.30;;
21046;SDS011;10682;50.874;3.656;2023-04-03T15:03:47;3.93;;;1.30;;
21046;SDS011;10682;50.874;3.656;2023-04-03T15:06:15;3.60;;;1.40;;
21046;SDS011;10682;50.874;3.656;2023-04-03T15:08:42;4.40;;;1.50;;
21046;SDS011;10682;50.874;3.656;2023-04-03T15:11:11;4.93;;;1.30;;
21046;SDS011;10682;50.874;3.656;2023-04-03T15:13:38;2.83;;;1.20;;
21046;SDS011;10682;50.874;3.656;2023-04-03T15:16:11;3.80;;;1.40;;
21046;SDS011;10682;50.874;3.656;2023-04-03T15:18:45;3.70;;;1.30;;
21046;SDS011;10682;50.874;3.656;2023-04-03T15:21:13;5.33;;;1.40;;
21046;SDS011;10682;50.874;3.656;2023-04-03T15:23:41;4.07;;;1.10;;
21046;SDS011;10682;50.874;3.656;2023-04-03T15:26:09;3.07;;;1.53;;
21046;SDS011;10682;50.874;3.656;2023-04-03T15:28:37;2.50;;;1.50;;
21046;SDS011;10682;50.874;3.656;2023-04-03T15:31:08;2.80;;;1.30;;
21046;SDS011;10682;50.874;3.656;2023-04-03T15:33:36;3.83;;;1.50;;
21046;SDS011;10682;50.874;3.656;2023-04-03T15:36:04;5.73;;;1.40;;
21046;SDS011;10682;50.874;3.656;2023-04-03T15:38:33;5.03;;;1.30;;
21046;SDS011;10682;50.874;3.656;2023-04-03T15:41:00;5.40;;;1.60;;
21046;SDS011;10682;50.874;3.656;2023-04-03T15:43:28;2.80;;;1.40;;
21046;SDS011;10682;50.874;3.656;2023-04-03T15:45:56;2.17;;;1.20;;
21046;SDS011;10682;50.874;3.656;2023-04-03T15:48:26;2.60;;;1.53;;
21046;SDS011;10682;50.874;3.656;2023-04-03T15:50:54;2.60;;;1.43;;
21046;SDS011;10682;50.874;3.656;2023-04-03T15:53:24;3.67;;;1.43;;
21046;SDS011;10682;50.874;3.656;2023-04-03T15:55:51;4.77;;;1.60;;
21046;SDS011;10682;50.874;3.656;2023-04-03T15:58:18;4.27;;;1.60;;
21046;SDS011;10682;50.874;3.656;2023-04-03T16:00:45;2.80;;;1.70;;
21046;SDS011;10682;50.874;3.656;2023-04-03T16:03:15;5.47;;;1.50;;
21046;SDS011;10682;50.874;3.656;2023-04-03T16:05:45;3.23;;;1.33;;
21046;SDS011;10682;50.874;3.656;2023-04-03T16:08:13;6.27;;;1.60;;
21046;SDS011;10682;50.874;3.656;2023-04-03T16:10:40;7.77;;;1.80;;
21046;SDS011;10682;50.874;3.656;2023-04-03T16:13:07;5.13;;;1.77;;
21046;SDS011;10682;50.874;3.656;2023-04-03T16:15:40;5.20;;;1.80;;
21046;SDS011;10682;50.874;3.656;2023-04-03T16:18:07;6.50;;;1.70;;
21046;SDS011;10682;50.874;3.656;2023-04-03T16:20:43;5.20;;;1.73;;
21046;SDS011;10682;50.874;3.656;2023-04-03T16:23:10;6.60;;;1.63;;
21046;SDS011;10682;50.874;3.656;2023-04-03T16:25:38;3.63;;;1.40;;
21046;SDS011;10682;50.874;3.656;2023-04-03T16:28:05;4.00;;;1.73;;
21046;SDS011;10682;50.874;3.656;2023-04-03T16:30:32;2.63;;;1.57;;
21046;SDS011;10682;50.874;3.656;2023-04-03T16:32:59;5.87;;;1.60;;
21046;SDS011;10682;50.874;3.656;2023-04-03T16:35:27;3.20;;;1.40;;
21046;SDS011;10682;50.874;3.656;2023-04-03T16:37:54;6.67;;;1.87;;
21046;SDS011;10682;50.874;3.656;2023-04-03T16:40:21;3.83;;;1.70;;
21046;SDS011;10682;50.874;3.656;2023-04-03T16:42:48;2.70;;;1.30;;
21046;SDS011;10682;50.874;3.656;2023-04-03T16:45:15;3.33;;;1.50;;
21046;SDS011;10682;50.874;3.656;2023-04-03T16:47:42;3.03;;;1.30;;
21046;SDS011;10682;50.874;3.656;2023-04-03T16:50:09;5.27;;;1.60;;
21046;SDS011;10682;50.874;3.656;2023-04-03T16:52:36;4.90;;;1.60;;
21046;SDS011;10682;50.874;3.656;2023-04-03T16:55:04;3.83;;;1.53;;
21046;SDS011;10682;50.874;3.656;2023-04-03T16:57:31;2.73;;;1.50;;
21046;SDS011;10682;50.874;3.656;2023-04-03T16:59:58;3.47;;;1.20;;
21046;SDS011;10682;50.874;3.656;2023-04-03T17:02:25;10.20;;;1.50;;
21046;SDS011;10682;50.874;3.656;2023-04-03T17:04:53;5.13;;;1.53;;
21046;SDS011;10682;50.874;3.656;2023-04-03T17:07:20;8.03;;;1.63;;
21046;SDS011;10682;50.874;3.656;2023-04-03T17:09:49;3.30;;;1.37;;
21046;SDS011;10682;50.874;3.656;2023-04-03T17:12:17;8.33;;;1.40;;
21046;SDS011;10682;50.874;3.656;2023-04-03T17:14:44;2.83;;;1.50;;
21046;SDS011;10682;50.874;3.656;2023-04-03T17:17:17;2.70;;;1.50;;
21046;SDS011;10682;50.874;3.656;2023-04-03T17:19:48;2.13;;;1.20;;
21046;SDS011;10682;50.874;3.656;2023-04-03T17:22:15;3.87;;;1.47;;
21046;SDS011;10682;50.874;3.656;2023-04-03T17:24:43;4.90;;;1.20;;
21046;SDS011;10682;50.874;3.656;2023-04-03T17:27:10;3.03;;;1.30;;
21046;SDS011;10682;50.874;3.656;2023-04-03T17:29:38;3.53;;;1.27;;
21046;SDS011;10682;50.874;3.656;2023-04-03T17:32:05;3.53;;;1.27;;
21046;SDS011;10682;50.874;3.656;2023-04-03T17:34:32;2.70;;;1.17;;